sensor_id;sensor_type;location;lat;lon;timestamp;pressure;altitude;pressure_sealevel;temperature;humidity
48614;BME280;34408;51.426;5.444;2023-02-16T00:01:18;102382.44;;;9.31;60.76
48614;BME280;34408;51.426;5.444;2023-02-16T00:03:47;102392.53;;;9.29;60.85
48614;BME280;34408;51.426;5.444;2023-02-16T00:06:15;102377.63;;;9.26;60.44
48614;BME280;34408;51.426;5.444;2023-02-16T00:08:44;102382.97;;;9.26;60.61
48614;BME280;34408;51.426;5.444;2023-02-16T00:11:15;102382.97;;;9.26;60.97
48614;BME280;34408;51.426;5.444;2023-02-16T00:14:03;102376.94;;;9.24;60.54
48614;BME280;34408;51.426;5.444;2023-02-16T00:16:33;102381.47;;;9.24;60.95
48614;BME280;34408;51.426;5.444;2023-02-16T00:19:01;102384.34;;;9.22;60.70
48614;BME280;34408;51.426;5.444;2023-02-16T00:21:29;102388.69;;;9.23;61.03
48614;BME280;34408;51.426;5.444;2023-02-16T00:23:57;102376.47;;;9.21;60.40
48614;BME280;34408;51.426;5.444;2023-02-16T00:26:26;102392.56;;;9.21;61.12
48614;BME280;34408;51.426;5.444;2023-02-16T00:28:56;102386.19;;;9.22;60.63
48614;BME280;34408;51.426;5.444;2023-02-16T00:31:25;102386.38;;;9.20;60.44
48614;BME280;34408;51.426;5.444;2023-02-16T00:33:56;102380.16;;;9.20;60.53
48614;BME280;34408;51.426;5.444;2023-02-16T00:36:24;102379.31;;;9.19;60.47
48614;BME280;34408;51.426;5.444;2023-02-16T00:38:51;102383.84;;;9.19;60.54
48614;BME280;34408;51.426;5.444;2023-02-16T00:41:21;102385.88;;;9.17;60.46
48614;BME280;34408;51.426;5.444;2023-02-16T00:44:12;102378.00;;;9.15;60.43
48614;BME280;34408;51.426;5.444;2023-02-16T00:46:41;102382.53;;;9.14;60.48
48614;BME280;34408;51.426;5.444;2023-02-16T00:49:13;102382.53;;;9.14;60.29
48614;BME280;34408;51.426;5.444;2023-02-16T00:51:41;102379.19;;;9.12;60.21
48614;BME280;34408;51.426;5.444;2023-02-16T00:54:09;102386.56;;;9.10;60.87
48614;BME280;34408;51.426;5.444;2023-02-16T00:56:38;102388.41;;;9.10;60.17
48614;BME280;34408;51.426;5.444;2023-02-16T00:59:11;102390.25;;;9.09;60.63
48614;BME280;34408;51.426;5.444;2023-02-16T01:01:41;102380.91;;;9.05;59.95
48614;BME280;34408;51.426;5.444;2023-02-16T01:04:15;102380.72;;;9.07;60.67
48614;BME280;34408;51.426;5.444;2023-02-16T01:06:44;102373.03;;;9.04;60.75
48614;BME280;34408;51.426;5.444;2023-02-16T01:09:29;102364.31;;;9.02;60.63
48614;BME280;34408;51.426;5.444;2023-02-16T01:12:17;102377.72;;;9.02;60.59
48614;BME280;34408;51.426;5.444;2023-02-16T01:14:50;102371.69;;;9.00;60.58
48614;BME280;34408;51.426;5.444;2023-02-16T01:17:18;102372.88;;;8.97;60.14
48614;BME280;34408;51.426;5.444;2023-02-16T01:19:47;102362.34;;;8.96;60.46
48614;BME280;34408;51.426;5.444;2023-02-16T01:22:15;102368.69;;;8.95;60.89
48614;BME280;34408;51.426;5.444;2023-02-16T01:24:43;102367.88;;;8.94;60.93
48614;BME280;34408;51.426;5.444;2023-02-16T01:27:12;102377.94;;;8.92;60.85
48614;BME280;34408;51.426;5.444;2023-02-16T01:29:40;102375.44;;;8.91;60.10
48614;BME280;34408;51.426;5.444;2023-02-16T01:32:09;102368.38;;;8.90;60.12
48614;BME280;34408;51.426;5.444;2023-02-16T01:34:38;102362.38;;;8.88;60.86
48614;BME280;34408;51.426;5.444;2023-02-16T01:37:13;102353.47;;;8.87;60.86
48614;BME280;34408;51.426;5.444;2023-02-16T01:39:41;102353.47;;;8.87;60.51
48614;BME280;34408;51.426;5.444;2023-02-16T01:42:14;102345.78;;;8.84;60.46
48614;BME280;34408;51.426;5.444;2023-02-16T01:44:47;102347.97;;;8.80;60.17
48614;BME280;34408;51.426;5.444;2023-02-16T01:47:28;102337.91;;;8.82;60.06
48614;BME280;34408;51.426;5.444;2023-02-16T01:49:56;102344.28;;;8.81;60.95
48614;BME280;34408;51.426;5.444;2023-02-16T01:52:32;102330.06;;;8.81;60.69
48614;BME280;34408;51.426;5.444;2023-02-16T01:55:05;102322.19;;;8.79;60.85
48614;BME280;34408;51.426;5.444;2023-02-16T01:57:40;102319.69;;;8.78;60.81
48614;BME280;34408;51.426;5.444;2023-02-16T02:00:18;102322.34;;;8.78;60.27
48614;BME280;34408;51.426;5.444;2023-02-16T02:02:49;102313.66;;;8.76;60.33
48614;BME280;34408;51.426;5.444;2023-02-16T02:05:22;102314.66;;;8.75;60.49
48614;BME280;34408;51.426;5.444;2023-02-16T02:08:11;102313.81;;;8.74;60.62
48614;BME280;34408;51.426;5.444;2023-02-16T02:10:53;102311.31;;;8.73;60.83
48614;BME280;34408;51.426;5.444;2023-02-16T02:13:28;102310.16;;;8.67;60.61
48614;BME280;34408;51.426;5.444;2023-02-16T02:15:59;102315.00;;;8.72;60.28
48614;BME280;34408;51.426;5.444;2023-02-16T02:18:27;102315.84;;;8.72;60.03
48614;BME280;34408;51.426;5.444;2023-02-16T02:21:07;102319.38;;;8.73;60.78
48614;BME280;34408;51.426;5.444;2023-02-16T02:24:14;102319.53;;;8.71;60.42
48614;BME280;34408;51.426;5.444;2023-02-16T02:27:06;102307.97;;;8.71;60.30
48614;BME280;34408;51.426;5.444;2023-02-16T02:29:48;102304.47;;;8.70;60.58
48614;BME280;34408;51.426;5.444;2023-02-16T02:32:26;102304.63;;;8.69;60.38
48614;BME280;34408;51.426;5.444;2023-02-16T02:35:08;102297.59;;;8.68;60.07
48614;BME280;34408;51.426;5.444;2023-02-16T02:37:46;102302.78;;;8.69;59.93
48614;BME280;34408;51.426;5.444;2023-02-16T02:40:21;102299.44;;;8.67;59.61
48614;BME280;34408;51.426;5.444;2023-02-16T02:43:03;102293.25;;;8.67;60.17
48614;BME280;34408;51.426;5.444;2023-02-16T02:45:35;102291.63;;;8.66;60.25
48614;BME280;34408;51.426;5.444;2023-02-16T02:48:05;102283.91;;;8.63;60.39
48614;BME280;34408;51.426;5.444;2023-02-16T02:50:39;102290.94;;;8.64;60.13
48614;BME280;34408;51.426;5.444;2023-02-16T02:53:30;102283.91;;;8.63;59.87
48614;BME280;34408;51.426;5.444;2023-02-16T02:55:59;102284.94;;;8.62;60.22
48614;BME280;34408;51.426;5.444;2023-02-16T02:58:49;102278.91;;;8.60;60.56
48614;BME280;34408;51.426;5.444;2023-02-16T03:01:34;102276.41;;;8.58;60.73
48614;BME280;34408;51.426;5.444;2023-02-16T03:04:05;102266.53;;;8.59;59.99
48614;BME280;34408;51.426;5.444;2023-02-16T03:06:37;102270.38;;;8.56;60.02
48614;BME280;34408;51.426;5.444;2023-02-16T03:09:09;102266.88;;;8.56;59.72
48614;BME280;34408;51.426;5.444;2023-02-16T03:11:39;102268.88;;;8.54;60.49
48614;BME280;34408;51.426;5.444;2023-02-16T03:14:30;102275.25;;;8.53;60.55
48614;BME280;34408;51.426;5.444;2023-02-16T03:17:00;102278.94;;;8.52;60.49
48614;BME280;34408;51.426;5.444;2023-02-16T03:19:48;102264.88;;;8.50;60.07
48614;BME280;34408;51.426;5.444;2023-02-16T03:22:34;102264.88;;;8.50;60.43
48614;BME280;34408;51.426;5.444;2023-02-16T03:25:21;102271.25;;;8.48;59.86
48614;BME280;34408;51.426;5.444;2023-02-16T03:28:09;102263.22;;;8.48;60.94
48614;BME280;34408;51.426;5.444;2023-02-16T03:30:57;102258.88;;;8.47;60.59
48614;BME280;34408;51.426;5.444;2023-02-16T03:33:27;102267.91;;;8.46;60.43
48614;BME280;34408;51.426;5.444;2023-02-16T03:35:56;102270.75;;;8.45;60.49
48614;BME280;34408;51.426;5.444;2023-02-16T03:38:25;102265.41;;;8.45;60.03
48614;BME280;34408;51.426;5.444;2023-02-16T03:40:53;102258.53;;;8.42;60.55
48614;BME280;34408;51.426;5.444;2023-02-16T03:43:23;102265.75;;;8.42;60.85
48614;BME280;34408;51.426;5.444;2023-02-16T03:45:52;102263.06;;;8.42;60.48
48614;BME280;34408;51.426;5.444;2023-02-16T03:48:21;102260.56;;;8.40;60.07
48614;BME280;34408;51.426;5.444;2023-02-16T03:50:49;102258.72;;;8.41;60.50
48614;BME280;34408;51.426;5.444;2023-02-16T03:53:17;102252.88;;;8.37;60.46
48614;BME280;34408;51.426;5.444;2023-02-16T03:55:46;102257.22;;;8.38;60.48
48614;BME280;34408;51.426;5.444;2023-02-16T03:58:20;102254.72;;;8.37;60.50
48614;BME280;34408;51.426;5.444;2023-02-16T04:00:48;102246.84;;;8.35;60.59
48614;BME280;34408;51.426;5.444;2023-02-16T04:03:16;102266.44;;;8.36;60.25
48614;BME280;34408;51.426;5.444;2023-02-16T04:05:46;102256.72;;;8.35;60.30
48614;BME280;34408;51.426;5.444;2023-02-16T04:08:13;102263.09;;;8.34;60.56
48614;BME280;34408;51.426;5.444;2023-02-16T04:10:41;102266.78;;;8.33;60.54
48614;BME280;34408;51.426;5.444;2023-02-16T04:13:09;102264.41;;;8.30;60.53
48614;BME280;34408;51.426;5.444;2023-02-16T04:15:36;102272.28;;;8.31;61.11
48614;BME280;34408;51.426;5.444;2023-02-16T04:18:03;102274.97;;;8.31;61.14
48614;BME280;34408;51.426;5.444;2023-02-16T04:20:32;102269.94;;;8.28;61.16
48614;BME280;34408;51.426;5.444;2023-02-16T04:23:03;102266.91;;;8.31;60.10
48614;BME280;34408;51.426;5.444;2023-02-16T04:25:31;102258.06;;;8.31;61.10
48614;BME280;34408;51.426;5.444;2023-02-16T04:27:58;102262.41;;;8.32;59.91
48614;BME280;34408;51.426;5.444;2023-02-16T04:30:28;102262.41;;;8.32;60.14
48614;BME280;34408;51.426;5.444;2023-02-16T04:32:57;102266.91;;;8.31;60.36
48614;BME280;34408;51.426;5.444;2023-02-16T04:35:25;102261.91;;;8.28;60.91
48614;BME280;34408;51.426;5.444;2023-02-16T04:37:53;102263.56;;;8.29;61.10
48614;BME280;34408;51.426;5.444;2023-02-16T04:40:22;102267.09;;;8.30;60.63
48614;BME280;34408;51.426;5.444;2023-02-16T04:42:50;102263.56;;;8.29;60.42
48614;BME280;34408;51.426;5.444;2023-02-16T04:45:18;102268.09;;;8.29;60.02
48614;BME280;34408;51.426;5.444;2023-02-16T04:47:45;102255.72;;;8.28;60.44
48614;BME280;34408;51.426;5.444;2023-02-16T04:50:13;102270.78;;;8.29;60.78
48614;BME280;34408;51.426;5.444;2023-02-16T04:52:41;102266.44;;;8.28;60.89
48614;BME280;34408;51.426;5.444;2023-02-16T04:55:08;102263.56;;;8.29;60.71
48614;BME280;34408;51.426;5.444;2023-02-16T04:57:38;102259.41;;;8.27;61.15
48614;BME280;34408;51.426;5.444;2023-02-16T05:00:08;102259.56;;;8.25;60.61
48614;BME280;34408;51.426;5.444;2023-02-16T05:02:37;102267.78;;;8.24;61.27
48614;BME280;34408;51.426;5.444;2023-02-16T05:05:05;102267.78;;;8.24;60.19
48614;BME280;34408;51.426;5.444;2023-02-16T05:07:33;102266.09;;;8.23;60.51
48614;BME280;34408;51.426;5.444;2023-02-16T05:10:01;102270.81;;;8.21;60.51
48614;BME280;34408;51.426;5.444;2023-02-16T05:12:29;102263.59;;;8.21;60.66
48614;BME280;34408;51.426;5.444;2023-02-16T05:15:16;102261.94;;;8.20;61.14
48614;BME280;34408;51.426;5.444;2023-02-16T05:17:43;102257.41;;;8.21;60.67
48614;BME280;34408;51.426;5.444;2023-02-16T05:20:12;102269.97;;;8.20;61.15
48614;BME280;34408;51.426;5.444;2023-02-16T05:22:40;102258.41;;;8.20;60.61
48614;BME280;34408;51.426;5.444;2023-02-16T05:25:08;102240.69;;;8.19;60.96
48614;BME280;34408;51.426;5.444;2023-02-16T05:27:36;102253.22;;;8.18;61.23
48614;BME280;34408;51.426;5.444;2023-02-16T05:30:06;102248.88;;;8.17;60.83
48614;BME280;34408;51.426;5.444;2023-02-16T05:32:35;102247.88;;;8.18;61.14
48614;BME280;34408;51.426;5.444;2023-02-16T05:35:03;102269.47;;;8.16;60.85
48614;BME280;34408;51.426;5.444;2023-02-16T05:37:31;102264.28;;;8.15;60.47
48614;BME280;34408;51.426;5.444;2023-02-16T05:39:59;102240.84;;;8.17;61.59
48614;BME280;34408;51.426;5.444;2023-02-16T05:42:26;102242.69;;;8.16;61.19
48614;BME280;34408;51.426;5.444;2023-02-16T05:44:54;102240.00;;;8.16;61.23
48614;BME280;34408;51.426;5.444;2023-02-16T05:47:22;102241.03;;;8.15;61.20
48614;BME280;34408;51.426;5.444;2023-02-16T05:49:51;102241.84;;;8.16;60.85
48614;BME280;34408;51.426;5.444;2023-02-16T05:52:19;102242.88;;;8.15;61.14
48614;BME280;34408;51.426;5.444;2023-02-16T05:54:46;102253.56;;;8.15;61.21
48614;BME280;34408;51.426;5.444;2023-02-16T05:57:14;102262.44;;;8.15;61.51
48614;BME280;34408;51.426;5.444;2023-02-16T05:59:42;102252.75;;;8.14;60.97
48614;BME280;34408;51.426;5.444;2023-02-16T06:02:10;102248.22;;;8.15;61.43
48614;BME280;34408;51.426;5.444;2023-02-16T06:04:38;102243.69;;;8.15;61.18
48614;BME280;34408;51.426;5.444;2023-02-16T06:07:08;102235.66;;;8.15;61.14
48614;BME280;34408;51.426;5.444;2023-02-16T06:09:35;102227.63;;;8.15;61.14
48614;BME280;34408;51.426;5.444;2023-02-16T06:12:04;102239.19;;;8.16;61.56
48614;BME280;34408;51.426;5.444;2023-02-16T06:14:31;102244.72;;;8.14;61.53
48614;BME280;34408;51.426;5.444;2023-02-16T06:16:59;102244.72;;;8.14;61.72
48614;BME280;34408;51.426;5.444;2023-02-16T06:19:27;102242.03;;;8.14;61.25
48614;BME280;34408;51.426;5.444;2023-02-16T06:21:55;102243.88;;;8.14;61.19
48614;BME280;34408;51.426;5.444;2023-02-16T06:24:24;102238.50;;;8.14;60.77
48614;BME280;34408;51.426;5.444;2023-02-16T06:26:52;102230.47;;;8.14;61.53
48614;BME280;34408;51.426;5.444;2023-02-16T06:29:20;102240.19;;;8.15;61.21
48614;BME280;34408;51.426;5.444;2023-02-16T06:31:47;102228.63;;;8.14;62.02
48614;BME280;34408;51.426;5.444;2023-02-16T06:34:15;102236.50;;;8.16;60.87
48614;BME280;34408;51.426;5.444;2023-02-16T06:36:43;102244.53;;;8.16;61.45
48614;BME280;34408;51.426;5.444;2023-02-16T06:39:11;102248.06;;;8.16;61.41
48614;BME280;34408;51.426;5.444;2023-02-16T06:41:40;102254.25;;;8.17;61.57
48614;BME280;34408;51.426;5.444;2023-02-16T06:44:09;102252.41;;;8.18;61.45
48614;BME280;34408;51.426;5.444;2023-02-16T06:46:39;102254.25;;;8.17;60.99
48614;BME280;34408;51.426;5.444;2023-02-16T06:49:10;102264.13;;;8.16;60.95
48614;BME280;34408;51.426;5.444;2023-02-16T06:51:39;102274.81;;;8.16;61.67
48614;BME280;34408;51.426;5.444;2023-02-16T06:54:07;102279.19;;;8.18;61.51
48614;BME280;34408;51.426;5.444;2023-02-16T06:56:35;102274.81;;;8.16;61.88
48614;BME280;34408;51.426;5.444;2023-02-16T06:59:05;102293.41;;;8.18;62.36
48614;BME280;34408;51.426;5.444;2023-02-16T07:01:33;102279.19;;;8.18;61.88
48614;BME280;34408;51.426;5.444;2023-02-16T07:04:01;102268.63;;;8.16;62.28
48614;BME280;34408;51.426;5.444;2023-02-16T07:06:28;102270.47;;;8.15;61.66
48614;BME280;34408;51.426;5.444;2023-02-16T07:08:56;102266.97;;;8.15;61.97
48614;BME280;34408;51.426;5.444;2023-02-16T07:11:25;102269.66;;;8.15;62.13
48614;BME280;34408;51.426;5.444;2023-02-16T07:13:53;102277.69;;;8.15;62.18
48614;BME280;34408;51.426;5.444;2023-02-16T07:16:22;102287.56;;;8.14;61.88
48614;BME280;34408;51.426;5.444;2023-02-16T07:18:50;102285.88;;;8.13;61.75
48614;BME280;34408;51.426;5.444;2023-02-16T07:21:17;102285.03;;;8.13;61.72
48614;BME280;34408;51.426;5.444;2023-02-16T07:23:45;102282.38;;;8.13;62.40
48614;BME280;34408;51.426;5.444;2023-02-16T07:26:13;102287.72;;;8.13;62.41
48614;BME280;34408;51.426;5.444;2023-02-16T07:28:41;102286.72;;;8.14;62.28
48614;BME280;34408;51.426;5.444;2023-02-16T07:31:11;102284.22;;;8.12;62.41
48614;BME280;34408;51.426;5.444;2023-02-16T07:33:40;102280.69;;;8.12;61.90
48614;BME280;34408;51.426;5.444;2023-02-16T07:36:09;102288.56;;;8.13;62.43
48614;BME280;34408;51.426;5.444;2023-02-16T07:38:37;102287.56;;;8.14;61.70
48614;BME280;34408;51.426;5.444;2023-02-16T07:41:07;102280.34;;;8.15;61.82
48614;BME280;34408;51.426;5.444;2023-02-16T07:43:36;102290.91;;;8.16;61.68
48614;BME280;34408;51.426;5.444;2023-02-16T07:46:04;102283.03;;;8.15;61.88
48614;BME280;34408;51.426;5.444;2023-02-16T07:48:32;102284.53;;;8.18;61.71
48614;BME280;34408;51.426;5.444;2023-02-16T07:51:01;102290.72;;;8.18;61.94
48614;BME280;34408;51.426;5.444;2023-02-16T07:53:30;102288.22;;;8.16;61.80
48614;BME280;34408;51.426;5.444;2023-02-16T07:55:57;102290.06;;;8.16;61.96
48614;BME280;34408;51.426;5.444;2023-02-16T07:58:25;102281.03;;;8.17;62.32
48614;BME280;34408;51.426;5.444;2023-02-16T08:00:54;102284.53;;;8.18;62.14
48614;BME280;34408;51.426;5.444;2023-02-16T08:03:23;102286.38;;;8.17;62.61
48614;BME280;34408;51.426;5.444;2023-02-16T08:05:51;102291.72;;;8.17;61.67
48614;BME280;34408;51.426;5.444;2023-02-16T08:08:20;102287.56;;;8.14;62.47
48614;BME280;34408;51.426;5.444;2023-02-16T08:10:48;102288.38;;;8.15;62.17
48614;BME280;34408;51.426;5.444;2023-02-16T08:13:15;102292.72;;;8.16;62.61
48614;BME280;34408;51.426;5.444;2023-02-16T08:15:43;102286.53;;;8.15;62.48
48614;BME280;34408;51.426;5.444;2023-02-16T08:18:11;102282.03;;;8.16;62.28
48614;BME280;34408;51.426;5.444;2023-02-16T08:20:39;102283.03;;;8.15;62.83
48614;BME280;34408;51.426;5.444;2023-02-16T08:23:28;102282.88;;;8.16;62.78
48614;BME280;34408;51.426;5.444;2023-02-16T08:25:57;102291.72;;;8.17;62.23
48614;BME280;34408;51.426;5.444;2023-02-16T08:28:25;102289.22;;;8.15;62.75
48614;BME280;34408;51.426;5.444;2023-02-16T08:30:54;102293.56;;;8.16;62.71
48614;BME280;34408;51.426;5.444;2023-02-16T08:33:22;102292.72;;;8.16;62.04
48614;BME280;34408;51.426;5.444;2023-02-16T08:35:50;102300.78;;;8.16;62.67
48614;BME280;34408;51.426;5.444;2023-02-16T08:38:18;102302.44;;;8.17;62.93
48614;BME280;34408;51.426;5.444;2023-02-16T08:40:48;102305.78;;;8.19;62.72
48614;BME280;34408;51.426;5.444;2023-02-16T08:43:16;102310.97;;;8.21;63.32
48614;BME280;34408;51.426;5.444;2023-02-16T08:45:45;102311.63;;;8.23;62.56
48614;BME280;34408;51.426;5.444;2023-02-16T08:48:13;102316.16;;;8.22;63.13
48614;BME280;34408;51.426;5.444;2023-02-16T08:50:42;102313.47;;;8.22;63.13
48614;BME280;34408;51.426;5.444;2023-02-16T08:53:12;102302.59;;;8.24;63.59
48614;BME280;34408;51.426;5.444;2023-02-16T08:55:40;102302.59;;;8.24;62.72
48614;BME280;34408;51.426;5.444;2023-02-16T08:58:09;102304.28;;;8.25;62.77
48614;BME280;34408;51.426;5.444;2023-02-16T09:00:37;102309.44;;;8.26;62.73
48614;BME280;34408;51.426;5.444;2023-02-16T09:03:05;102317.97;;;8.30;63.12
48614;BME280;34408;51.426;5.444;2023-02-16T09:05:33;102325.69;;;8.41;62.93
48614;BME280;34408;51.426;5.444;2023-02-16T09:08:01;102326.81;;;8.55;62.26
48614;BME280;34408;51.426;5.444;2023-02-16T09:10:29;102325.72;;;8.72;62.02
48614;BME280;34408;51.426;5.444;2023-02-16T09:12:56;102333.03;;;8.86;61.41
48614;BME280;34408;51.426;5.444;2023-02-16T09:15:26;102321.59;;;9.00;61.30
48614;BME280;34408;51.426;5.444;2023-02-16T09:17:54;102334.25;;;9.14;60.49
48614;BME280;34408;51.426;5.444;2023-02-16T09:20:22;102337.84;;;9.30;60.44
48614;BME280;34408;51.426;5.444;2023-02-16T09:22:52;102341.44;;;9.45;60.10
48614;BME280;34408;51.426;5.444;2023-02-16T09:25:20;102337.81;;;9.61;59.29
48614;BME280;34408;51.426;5.444;2023-02-16T09:27:50;102335.38;;;9.74;58.62
48614;BME280;34408;51.426;5.444;2023-02-16T09:30:18;102337.81;;;9.84;58.31
48614;BME280;34408;51.426;5.444;2023-02-16T09:32:47;102337.56;;;9.93;58.53
48614;BME280;34408;51.426;5.444;2023-02-16T09:35:15;102335.63;;;10.02;57.80
48614;BME280;34408;51.426;5.444;2023-02-16T09:37:43;102324.53;;;10.05;57.87
48614;BME280;34408;51.426;5.444;2023-02-16T09:40:12;102328.69;;;10.07;57.70
48614;BME280;34408;51.426;5.444;2023-02-16T09:42:50;102317.41;;;10.12;57.98
48614;BME280;34408;51.426;5.444;2023-02-16T09:45:21;102331.69;;;10.13;57.78
48614;BME280;34408;51.426;5.444;2023-02-16T09:47:52;102325.28;;;10.14;57.82
48614;BME280;34408;51.426;5.444;2023-02-16T09:50:23;102324.28;;;10.15;57.71
48614;BME280;34408;51.426;5.444;2023-02-16T09:53:18;102318.53;;;10.18;57.73
48614;BME280;34408;51.426;5.444;2023-02-16T09:55:54;102330.81;;;10.20;57.91
48614;BME280;34408;51.426;5.444;2023-02-16T09:58:39;102315.34;;;10.22;58.08
48614;BME280;34408;51.426;5.444;2023-02-16T10:01:17;102315.97;;;10.24;58.10
48614;BME280;34408;51.426;5.444;2023-02-16T10:03:54;102318.13;;;10.29;57.72
48614;BME280;34408;51.426;5.444;2023-02-16T10:06:33;102322.47;;;10.30;57.88
48614;BME280;34408;51.426;5.444;2023-02-16T10:09:07;102320.63;;;10.30;58.27
48614;BME280;34408;51.426;5.444;2023-02-16T10:11:39;102326.81;;;10.31;58.07
48614;BME280;34408;51.426;5.444;2023-02-16T10:14:17;102317.38;;;10.35;57.81
48614;BME280;34408;51.426;5.444;2023-02-16T10:16:51;102322.28;;;10.31;58.13
48614;BME280;34408;51.426;5.444;2023-02-16T10:19:26;102310.28;;;10.19;58.71
48614;BME280;34408;51.426;5.444;2023-02-16T10:21:57;102315.47;;;10.06;59.18
48614;BME280;34408;51.426;5.444;2023-02-16T10:24:30;102313.09;;;9.88;59.64
48614;BME280;34408;51.426;5.444;2023-02-16T10:27:06;102314.91;;;9.73;60.00
48614;BME280;34408;51.426;5.444;2023-02-16T10:29:37;102312.00;;;9.60;60.89
48614;BME280;34408;51.426;5.444;2023-02-16T10:32:14;102307.69;;;9.51;61.26
48614;BME280;34408;51.426;5.444;2023-02-16T10:34:55;102308.41;;;9.44;61.56
48614;BME280;34408;51.426;5.444;2023-02-16T10:37:40;102315.50;;;9.37;61.82
48614;BME280;34408;51.426;5.444;2023-02-16T10:40:19;102314.72;;;9.29;61.95
48614;BME280;34408;51.426;5.444;2023-02-16T10:42:53;102304.34;;;9.26;62.26
48614;BME280;34408;51.426;5.444;2023-02-16T10:45:26;102317.28;;;9.22;62.53
48614;BME280;34408;51.426;5.444;2023-02-16T10:47:57;102322.16;;;9.19;62.85
48614;BME280;34408;51.426;5.444;2023-02-16T10:50:31;102323.34;;;9.16;62.98
48614;BME280;34408;51.426;5.444;2023-02-16T10:53:00;102326.19;;;9.14;63.11
48614;BME280;34408;51.426;5.444;2023-02-16T10:55:31;102333.75;;;9.11;62.91
48614;BME280;34408;51.426;5.444;2023-02-16T10:58:00;102339.31;;;9.09;63.58
48614;BME280;34408;51.426;5.444;2023-02-16T11:00:41;102336.63;;;9.09;63.47
48614;BME280;34408;51.426;5.444;2023-02-16T11:03:13;102327.91;;;9.07;63.42
48614;BME280;34408;51.426;5.444;2023-02-16T11:05:43;102333.41;;;9.14;63.93
48614;BME280;34408;51.426;5.444;2023-02-16T11:08:11;102343.56;;;9.27;63.49
48614;BME280;34408;51.426;5.444;2023-02-16T11:10:43;102348.00;;;9.42;63.34
48614;BME280;34408;51.426;5.444;2023-02-16T11:13:23;102339.84;;;9.59;62.48
48614;BME280;34408;51.426;5.444;2023-02-16T11:15:54;102344.91;;;9.76;61.67
48614;BME280;34408;51.426;5.444;2023-02-16T11:18:28;102334.41;;;9.90;60.92
48614;BME280;34408;51.426;5.444;2023-02-16T11:20:58;102308.41;;;10.05;60.50
48614;BME280;34408;51.426;5.444;2023-02-16T11:23:28;102316.16;;;10.23;60.17
48614;BME280;34408;51.426;5.444;2023-02-16T11:25:59;102300.78;;;10.31;59.70
48614;BME280;34408;51.426;5.444;2023-02-16T11:28:34;102307.91;;;10.54;59.18
48614;BME280;34408;51.426;5.444;2023-02-16T11:31:10;102304.09;;;10.63;58.73
48614;BME280;34408;51.426;5.444;2023-02-16T11:33:39;102300.56;;;10.77;58.97
48614;BME280;34408;51.426;5.444;2023-02-16T11:36:20;102292.94;;;10.81;58.61
48614;BME280;34408;51.426;5.444;2023-02-16T11:38:56;102291.66;;;10.76;58.68
48614;BME280;34408;51.426;5.444;2023-02-16T11:41:25;102292.78;;;10.67;59.13
48614;BME280;34408;51.426;5.444;2023-02-16T11:43:54;102299.19;;;10.52;59.74
48614;BME280;34408;51.426;5.444;2023-02-16T11:46:23;102286.63;;;10.37;60.12
48614;BME280;34408;51.426;5.444;2023-02-16T11:48:51;102274.66;;;10.25;60.60
48614;BME280;34408;51.426;5.444;2023-02-16T11:51:32;102270.81;;;10.05;62.16
48614;BME280;34408;51.426;5.444;2023-02-16T11:54:04;102269.03;;;9.97;62.42
48614;BME280;34408;51.426;5.444;2023-02-16T11:56:34;102264.22;;;9.93;62.49
48614;BME280;34408;51.426;5.444;2023-02-16T11:59:15;102273.22;;;10.00;62.97
48614;BME280;34408;51.426;5.444;2023-02-16T12:04:53;102261.69;;;9.76;63.59
48614;BME280;34408;51.426;5.444;2023-02-16T12:07:38;102263.59;;;9.68;63.91
48614;BME280;34408;51.426;5.444;2023-02-16T12:10:09;102264.16;;;9.63;64.04
48614;BME280;34408;51.426;5.444;2023-02-16T12:12:45;102263.03;;;9.58;63.94
48614;BME280;34408;51.426;5.444;2023-02-16T12:15:20;102258.84;;;9.55;64.11
48614;BME280;34408;51.426;5.444;2023-02-16T12:18:03;102260.69;;;9.55;64.96
48614;BME280;34408;51.426;5.444;2023-02-16T12:20:40;102263.75;;;9.52;64.54
48614;BME280;34408;51.426;5.444;2023-02-16T12:23:23;102259.38;;;9.51;64.86
48614;BME280;34408;51.426;5.444;2023-02-16T12:26:03;102248.84;;;9.49;64.67
48614;BME280;34408;51.426;5.444;2023-02-16T12:28:41;102254.38;;;9.48;65.15
48614;BME280;34408;51.426;5.444;2023-02-16T12:31:22;102234.09;;;9.45;65.02
48614;BME280;34408;51.426;5.444;2023-02-16T12:34:03;102227.06;;;9.44;65.03
48614;BME280;34408;51.426;5.444;2023-02-16T12:36:45;102228.94;;;9.43;64.71
48614;BME280;34408;51.426;5.444;2023-02-16T12:39:26;102221.88;;;9.42;65.39
48614;BME280;34408;51.426;5.444;2023-02-16T12:42:15;102214.84;;;9.41;64.87
48614;BME280;34408;51.426;5.444;2023-02-16T12:44:49;102215.69;;;9.42;65.21
48614;BME280;34408;51.426;5.444;2023-02-16T12:47:23;102215.50;;;9.43;64.98
48614;BME280;34408;51.426;5.444;2023-02-16T12:49:54;102207.47;;;9.43;65.81
48614;BME280;34408;51.426;5.444;2023-02-16T12:52:30;102201.06;;;9.44;65.77
48614;BME280;34408;51.426;5.444;2023-02-16T12:55:14;102203.56;;;9.46;66.17
48614;BME280;34408;51.426;5.444;2023-02-16T12:57:49;102206.25;;;9.46;65.75
48614;BME280;34408;51.426;5.444;2023-02-16T13:00:22;102196.38;;;9.46;65.85
48614;BME280;34408;51.426;5.444;2023-02-16T13:02:55;102199.03;;;9.46;65.78
48614;BME280;34408;51.426;5.444;2023-02-16T13:05:29;102198.03;;;9.48;65.98
48614;BME280;34408;51.426;5.444;2023-02-16T13:08:05;102198.69;;;9.50;66.08
48614;BME280;34408;51.426;5.444;2023-02-16T13:10:47;102187.94;;;9.50;66.09
48614;BME280;34408;51.426;5.444;2023-02-16T13:13:22;102193.13;;;9.51;66.04
48614;BME280;34408;51.426;5.444;2023-02-16T13:15:57;102181.56;;;9.51;65.98
48614;BME280;34408;51.426;5.444;2023-02-16T13:18:28;102169.81;;;9.52;66.45
48614;BME280;34408;51.426;5.444;2023-02-16T13:21:02;102163.44;;;9.53;65.92
48614;BME280;34408;51.426;5.444;2023-02-16T13:23:50;102165.56;;;9.57;66.30
48614;BME280;34408;51.426;5.444;2023-02-16T13:26:35;102167.06;;;9.60;65.96
48614;BME280;34408;51.426;5.444;2023-02-16T13:32:41;102166.69;;;9.63;66.47